Terminal Aerodrome Forecast
Issued by NWS Mt. Holly, NJ

Home | Current Version | Previous Version | Text Only | Print | Product List | Glossary On
Versions: 1 2 3 4 5 6 7 8 9 10 11 12 13 14 15 16 17 18
753
FTUS41 KPHI 131720
TAFILG
TAF
KILG 131720Z 1318/1418 31025G35KT P6SM BKN060
     FM140200 31014G22KT P6SM SCT050
     FM141000 31012KT P6SM SKC=

USA.gov is the U.S. government's official web portal to all federal, state and local government web resources and services.